sensor_id;sensor_type;location;lat;lon;timestamp;P1;durP1;ratioP1;P2;durP2;ratioP2
26977;SDS011;56314;48.088;11.642;2022-10-04T00:01:49;9.23;;;5.82;;
26977;SDS011;56314;48.088;11.642;2022-10-04T00:06:53;7.15;;;4.78;;
26977;SDS011;56314;48.088;11.642;2022-10-04T00:11:51;6.78;;;5.20;;
26977;SDS011;56314;48.088;11.642;2022-10-04T00:14:20;9.02;;;5.70;;
26977;SDS011;56314;48.088;11.642;2022-10-04T00:16:49;8.25;;;4.90;;
26977;SDS011;56314;48.088;11.642;2022-10-04T00:24:23;10.15;;;5.53;;
26977;SDS011;56314;48.088;11.642;2022-10-04T00:29:33;6.85;;;5.00;;
26977;SDS011;56314;48.088;11.642;2022-10-04T00:34:51;5.90;;;5.22;;
26977;SDS011;56314;48.088;11.642;2022-10-04T00:37:18;8.30;;;4.93;;
26977;SDS011;56314;48.088;11.642;2022-10-04T00:39:46;9.65;;;5.32;;
26977;SDS011;56314;48.088;11.642;2022-10-04T00:45:26;8.23;;;4.82;;
26977;SDS011;56314;48.088;11.642;2022-10-04T00:50:33;8.13;;;5.30;;
26977;SDS011;56314;48.088;11.642;2022-10-04T00:53:11;7.32;;;5.03;;
26977;SDS011;56314;48.088;11.642;2022-10-04T00:55:44;9.73;;;5.20;;
26977;SDS011;56314;48.088;11.642;2022-10-04T00:58:20;7.40;;;4.65;;
26977;SDS011;56314;48.088;11.642;2022-10-04T01:00:51;5.95;;;4.53;;
26977;SDS011;56314;48.088;11.642;2022-10-04T01:03:28;12.32;;;4.50;;
26977;SDS011;56314;48.088;11.642;2022-10-04T01:06:02;6.38;;;4.03;;
26977;SDS011;56314;48.088;11.642;2022-10-04T01:11:18;8.80;;;4.07;;
26977;SDS011;56314;48.088;11.642;2022-10-04T01:14:13;5.95;;;4.35;;
26977;SDS011;56314;48.088;11.642;2022-10-04T01:16:51;4.47;;;4.07;;
26977;SDS011;56314;48.088;11.642;2022-10-04T01:24:35;6.65;;;3.85;;
26977;SDS011;56314;48.088;11.642;2022-10-04T01:27:02;6.45;;;3.80;;
26977;SDS011;56314;48.088;11.642;2022-10-04T01:29:28;6.25;;;4.10;;
26977;SDS011;56314;48.088;11.642;2022-10-04T01:31:57;9.18;;;4.28;;
26977;SDS011;56314;48.088;11.642;2022-10-04T01:34:26;7.72;;;4.50;;
26977;SDS011;56314;48.088;11.642;2022-10-04T01:36:53;4.97;;;3.90;;
26977;SDS011;56314;48.088;11.642;2022-10-04T01:39:21;7.75;;;4.13;;
26977;SDS011;56314;48.088;11.642;2022-10-04T01:41:50;10.38;;;4.35;;
26977;SDS011;56314;48.088;11.642;2022-10-04T01:44:27;8.98;;;4.32;;
26977;SDS011;56314;48.088;11.642;2022-10-04T01:46:58;4.82;;;3.90;;
26977;SDS011;56314;48.088;11.642;2022-10-04T01:49:29;8.15;;;4.40;;
26977;SDS011;56314;48.088;11.642;2022-10-04T01:52:01;6.97;;;4.28;;
26977;SDS011;56314;48.088;11.642;2022-10-04T01:54:41;5.87;;;4.03;;
26977;SDS011;56314;48.088;11.642;2022-10-04T01:57:24;6.88;;;3.85;;
26977;SDS011;56314;48.088;11.642;2022-10-04T02:00:03;5.68;;;4.00;;
26977;SDS011;56314;48.088;11.642;2022-10-04T02:02:34;6.95;;;4.28;;
26977;SDS011;56314;48.088;11.642;2022-10-04T02:05:01;6.05;;;4.10;;
26977;SDS011;56314;48.088;11.642;2022-10-04T02:07:31;5.75;;;3.67;;
26977;SDS011;56314;48.088;11.642;2022-10-04T02:10:02;5.75;;;3.42;;
26977;SDS011;56314;48.088;11.642;2022-10-04T02:12:30;8.05;;;4.07;;
26977;SDS011;56314;48.088;11.642;2022-10-04T02:14:59;6.45;;;3.75;;
26977;SDS011;56314;48.088;11.642;2022-10-04T02:17:28;6.60;;;3.67;;
26977;SDS011;56314;48.088;11.642;2022-10-04T02:19:56;4.88;;;4.03;;
26977;SDS011;56314;48.088;11.642;2022-10-04T02:22:24;5.32;;;3.70;;
26977;SDS011;56314;48.088;11.642;2022-10-04T02:24:51;7.70;;;4.15;;
26977;SDS011;56314;48.088;11.642;2022-10-04T02:27:18;6.10;;;3.60;;
26977;SDS011;56314;48.088;11.642;2022-10-04T02:29:44;5.93;;;4.13;;
26977;SDS011;56314;48.088;11.642;2022-10-04T02:32:10;5.65;;;3.72;;
26977;SDS011;56314;48.088;11.642;2022-10-04T02:34:56;8.23;;;3.92;;
26977;SDS011;56314;48.088;11.642;2022-10-04T02:37:22;5.28;;;4.00;;
26977;SDS011;56314;48.088;11.642;2022-10-04T02:39:52;6.60;;;4.18;;
26977;SDS011;56314;48.088;11.642;2022-10-04T02:45:26;4.95;;;4.20;;
26977;SDS011;56314;48.088;11.642;2022-10-04T02:47:59;3.92;;;3.20;;
26977;SDS011;56314;48.088;11.642;2022-10-04T02:51:05;7.13;;;4.00;;
26977;SDS011;56314;48.088;11.642;2022-10-04T02:53:35;8.35;;;3.88;;
26977;SDS011;56314;48.088;11.642;2022-10-04T02:56:06;7.80;;;4.18;;
26977;SDS011;56314;48.088;11.642;2022-10-04T02:58:35;5.75;;;3.85;;
26977;SDS011;56314;48.088;11.642;2022-10-04T03:01:03;4.18;;;3.63;;
26977;SDS011;56314;48.088;11.642;2022-10-04T03:03:29;6.38;;;3.58;;
26977;SDS011;56314;48.088;11.642;2022-10-04T03:08:25;10.32;;;3.85;;
26977;SDS011;56314;48.088;11.642;2022-10-04T03:10:53;6.28;;;3.78;;
26977;SDS011;56314;48.088;11.642;2022-10-04T03:13:19;5.70;;;3.88;;
26977;SDS011;56314;48.088;11.642;2022-10-04T03:15:46;6.40;;;4.00;;
26977;SDS011;56314;48.088;11.642;2022-10-04T03:18:13;8.10;;;4.10;;
26977;SDS011;56314;48.088;11.642;2022-10-04T03:20:40;8.18;;;3.88;;
26977;SDS011;56314;48.088;11.642;2022-10-04T03:23:06;6.47;;;3.53;;
26977;SDS011;56314;48.088;11.642;2022-10-04T03:25:40;4.53;;;3.65;;
26977;SDS011;56314;48.088;11.642;2022-10-04T03:28:09;4.88;;;3.67;;
26977;SDS011;56314;48.088;11.642;2022-10-04T03:30:35;5.50;;;3.00;;
26977;SDS011;56314;48.088;11.642;2022-10-04T03:33:01;6.28;;;3.85;;
26977;SDS011;56314;48.088;11.642;2022-10-04T03:35:28;7.05;;;3.72;;
26977;SDS011;56314;48.088;11.642;2022-10-04T03:37:57;6.60;;;3.88;;
26977;SDS011;56314;48.088;11.642;2022-10-04T03:40:23;7.70;;;3.50;;
26977;SDS011;56314;48.088;11.642;2022-10-04T03:42:52;9.85;;;4.05;;
26977;SDS011;56314;48.088;11.642;2022-10-04T03:45:18;8.63;;;4.30;;
26977;SDS011;56314;48.088;11.642;2022-10-04T03:47:47;7.05;;;4.43;;
26977;SDS011;56314;48.088;11.642;2022-10-04T03:53:31;6.18;;;4.13;;
26977;SDS011;56314;48.088;11.642;2022-10-04T03:55:40;6.03;;;4.00;;
26977;SDS011;56314;48.088;11.642;2022-10-04T03:58:08;8.45;;;4.00;;
26977;SDS011;56314;48.088;11.642;2022-10-04T04:00:38;8.45;;;3.92;;
26977;SDS011;56314;48.088;11.642;2022-10-04T04:03:08;4.88;;;4.10;;
26977;SDS011;56314;48.088;11.642;2022-10-04T04:05:48;8.30;;;5.07;;
26977;SDS011;56314;48.088;11.642;2022-10-04T04:10:58;6.38;;;4.32;;
26977;SDS011;56314;48.088;11.642;2022-10-04T04:16:08;6.82;;;4.75;;
26977;SDS011;56314;48.088;11.642;2022-10-04T04:18:36;7.75;;;4.10;;
26977;SDS011;56314;48.088;11.642;2022-10-04T04:21:04;5.03;;;3.40;;
26977;SDS011;56314;48.088;11.642;2022-10-04T04:23:35;7.03;;;4.43;;
26977;SDS011;56314;48.088;11.642;2022-10-04T04:28:55;6.38;;;4.47;;
26977;SDS011;56314;48.088;11.642;2022-10-04T04:34:24;7.80;;;5.07;;
26977;SDS011;56314;48.088;11.642;2022-10-04T04:37:00;7.25;;;4.57;;
26977;SDS011;56314;48.088;11.642;2022-10-04T04:39:29;7.35;;;4.85;;
26977;SDS011;56314;48.088;11.642;2022-10-04T04:41:58;7.05;;;4.10;;
26977;SDS011;56314;48.088;11.642;2022-10-04T04:44:30;6.43;;;4.35;;
26977;SDS011;56314;48.088;11.642;2022-10-04T04:46:57;6.20;;;4.15;;
26977;SDS011;56314;48.088;11.642;2022-10-04T04:49:24;7.97;;;4.25;;
26977;SDS011;56314;48.088;11.642;2022-10-04T04:51:53;6.25;;;4.00;;
26977;SDS011;56314;48.088;11.642;2022-10-04T04:54:21;8.10;;;5.30;;
26977;SDS011;56314;48.088;11.642;2022-10-04T04:56:49;10.48;;;5.45;;
26977;SDS011;56314;48.088;11.642;2022-10-04T04:59:16;6.10;;;4.20;;
26977;SDS011;56314;48.088;11.642;2022-10-04T05:01:45;7.63;;;5.05;;
26977;SDS011;56314;48.088;11.642;2022-10-04T05:06:37;5.95;;;4.32;;
26977;SDS011;56314;48.088;11.642;2022-10-04T05:09:05;6.70;;;4.60;;
26977;SDS011;56314;48.088;11.642;2022-10-04T05:11:45;8.70;;;4.78;;
26977;SDS011;56314;48.088;11.642;2022-10-04T05:14:13;5.68;;;4.60;;
26977;SDS011;56314;48.088;11.642;2022-10-04T05:16:47;8.63;;;4.60;;
26977;SDS011;56314;48.088;11.642;2022-10-04T05:19:22;6.72;;;4.60;;
26977;SDS011;56314;48.088;11.642;2022-10-04T05:21:53;10.40;;;6.03;;
26977;SDS011;56314;48.088;11.642;2022-10-04T05:26:51;12.85;;;7.25;;
26977;SDS011;56314;48.088;11.642;2022-10-04T05:29:20;13.73;;;8.00;;
26977;SDS011;56314;48.088;11.642;2022-10-04T05:31:52;13.93;;;8.13;;
26977;SDS011;56314;48.088;11.642;2022-10-04T05:34:28;10.00;;;7.63;;
26977;SDS011;56314;48.088;11.642;2022-10-04T05:37:05;10.63;;;7.43;;
26977;SDS011;56314;48.088;11.642;2022-10-04T05:40:05;7.88;;;6.45;;
26977;SDS011;56314;48.088;11.642;2022-10-04T05:42:47;10.25;;;6.35;;
26977;SDS011;56314;48.088;11.642;2022-10-04T05:47:45;10.18;;;6.00;;
26977;SDS011;56314;48.088;11.642;2022-10-04T05:50:17;8.90;;;5.40;;
26977;SDS011;56314;48.088;11.642;2022-10-04T05:52:48;5.53;;;3.75;;
26977;SDS011;56314;48.088;11.642;2022-10-04T05:55:16;8.55;;;5.55;;
26977;SDS011;56314;48.088;11.642;2022-10-04T05:57:50;7.68;;;5.68;;
26977;SDS011;56314;48.088;11.642;2022-10-04T06:00:20;8.32;;;5.15;;
26977;SDS011;56314;48.088;11.642;2022-10-04T06:05:52;6.72;;;4.88;;
26977;SDS011;56314;48.088;11.642;2022-10-04T06:16:56;8.15;;;5.68;;
26977;SDS011;56314;48.088;11.642;2022-10-04T06:19:54;10.43;;;5.72;;
26977;SDS011;56314;48.088;11.642;2022-10-04T06:22:32;8.82;;;5.38;;
26977;SDS011;56314;48.088;11.642;2022-10-04T06:27:27;10.20;;;6.57;;
26977;SDS011;56314;48.088;11.642;2022-10-04T06:30:14;7.68;;;5.53;;
26977;SDS011;56314;48.088;11.642;2022-10-04T06:32:48;9.70;;;6.10;;
26977;SDS011;56314;48.088;11.642;2022-10-04T06:43:47;11.85;;;6.50;;
26977;SDS011;56314;48.088;11.642;2022-10-04T06:49:24;19.25;;;6.22;;
26977;SDS011;56314;48.088;11.642;2022-10-04T07:00:38;10.95;;;5.95;;
26977;SDS011;56314;48.088;11.642;2022-10-04T07:03:16;14.40;;;6.72;;
26977;SDS011;56314;48.088;11.642;2022-10-04T07:05:54;15.90;;;5.80;;
26977;SDS011;56314;48.088;11.642;2022-10-04T07:11:24;11.55;;;5.70;;
26977;SDS011;56314;48.088;11.642;2022-10-04T07:13:58;10.30;;;5.60;;
26977;SDS011;56314;48.088;11.642;2022-10-04T07:19:26;7.72;;;5.57;;
26977;SDS011;56314;48.088;11.642;2022-10-04T07:27:14;11.40;;;5.85;;
26977;SDS011;56314;48.088;11.642;2022-10-04T07:29:44;11.80;;;5.88;;
26977;SDS011;56314;48.088;11.642;2022-10-04T07:32:21;19.60;;;5.65;;
26977;SDS011;56314;48.088;11.642;2022-10-04T07:38:09;12.00;;;4.90;;
26977;SDS011;56314;48.088;11.642;2022-10-04T07:40:37;10.60;;;5.80;;
26977;SDS011;56314;48.088;11.642;2022-10-04T07:43:11;10.32;;;5.43;;
26977;SDS011;56314;48.088;11.642;2022-10-04T07:45:46;7.95;;;6.10;;
26977;SDS011;56314;48.088;11.642;2022-10-04T07:48:13;9.02;;;5.72;;
26977;SDS011;56314;48.088;11.642;2022-10-04T07:50:43;9.07;;;5.10;;
26977;SDS011;56314;48.088;11.642;2022-10-04T07:53:17;6.43;;;4.80;;
26977;SDS011;56314;48.088;11.642;2022-10-04T07:55:54;8.27;;;5.18;;
26977;SDS011;56314;48.088;11.642;2022-10-04T08:06:30;6.82;;;4.70;;
26977;SDS011;56314;48.088;11.642;2022-10-04T08:20:22;7.95;;;4.30;;
26977;SDS011;56314;48.088;11.642;2022-10-04T08:28:43;6.18;;;4.60;;
26977;SDS011;56314;48.088;11.642;2022-10-04T08:51:00;10.18;;;4.13;;
26977;SDS011;56314;48.088;11.642;2022-10-04T09:12:19;4.68;;;3.08;;
26977;SDS011;56314;48.088;11.642;2022-10-04T09:18:00;5.10;;;3.03;;
26977;SDS011;56314;48.088;11.642;2022-10-04T09:20:54;5.35;;;3.35;;
26977;SDS011;56314;48.088;11.642;2022-10-04T09:31:06;5.13;;;2.60;;
26977;SDS011;56314;48.088;11.642;2022-10-04T09:33:49;5.10;;;2.20;;
26977;SDS011;56314;48.088;11.642;2022-10-04T09:36:40;4.35;;;2.53;;
26977;SDS011;56314;48.088;11.642;2022-10-04T09:42:35;6.70;;;2.88;;
26977;SDS011;56314;48.088;11.642;2022-10-04T09:45:19;4.43;;;2.60;;
26977;SDS011;56314;48.088;11.642;2022-10-04T10:05:43;3.97;;;2.40;;
26977;SDS011;56314;48.088;11.642;2022-10-04T10:10:59;5.65;;;2.22;;
26977;SDS011;56314;48.088;11.642;2022-10-04T10:16:40;3.58;;;2.30;;
26977;SDS011;56314;48.088;11.642;2022-10-04T10:22:17;4.18;;;2.30;;
26977;SDS011;56314;48.088;11.642;2022-10-04T10:41:52;5.70;;;2.38;;
26977;SDS011;56314;48.088;11.642;2022-10-04T10:47:34;5.32;;;2.60;;
26977;SDS011;56314;48.088;11.642;2022-10-04T10:50:17;4.55;;;3.03;;
26977;SDS011;56314;48.088;11.642;2022-10-04T10:58:52;5.43;;;2.80;;
26977;SDS011;56314;48.088;11.642;2022-10-04T11:02:02;4.82;;;2.60;;
26977;SDS011;56314;48.088;11.642;2022-10-04T11:07:28;3.72;;;3.17;;
26977;SDS011;56314;48.088;11.642;2022-10-04T11:15:32;2.75;;;2.03;;
26977;SDS011;56314;48.088;11.642;2022-10-04T11:21:12;3.40;;;3.03;;
26977;SDS011;56314;48.088;11.642;2022-10-04T11:37:38;5.03;;;2.50;;
26977;SDS011;56314;48.088;11.642;2022-10-04T11:52:08;3.78;;;2.40;;
26977;SDS011;56314;48.088;11.642;2022-10-04T11:54:56;5.47;;;2.47;;
26977;SDS011;56314;48.088;11.642;2022-10-04T11:57:35;4.93;;;2.33;;
26977;SDS011;56314;48.088;11.642;2022-10-04T12:05:19;6.78;;;2.45;;
26977;SDS011;56314;48.088;11.642;2022-10-04T12:10:40;3.90;;;2.47;;
26977;SDS011;56314;48.088;11.642;2022-10-04T12:16:03;7.00;;;2.65;;
26977;SDS011;56314;48.088;11.642;2022-10-04T12:18:41;4.50;;;2.22;;
26977;SDS011;56314;48.088;11.642;2022-10-04T12:26:54;8.10;;;2.10;;
26977;SDS011;56314;48.088;11.642;2022-10-04T12:40:45;2.53;;;2.20;;
26977;SDS011;56314;48.088;11.642;2022-10-04T12:52:04;5.03;;;2.30;;
26977;SDS011;56314;48.088;11.642;2022-10-04T12:57:40;2.92;;;2.25;;
26977;SDS011;56314;48.088;11.642;2022-10-04T13:00:25;2.85;;;2.00;;
26977;SDS011;56314;48.088;11.642;2022-10-04T13:24:48;6.20;;;2.77;;
26977;SDS011;56314;48.088;11.642;2022-10-04T13:27:30;3.97;;;2.25;;
26977;SDS011;56314;48.088;11.642;2022-10-04T13:30:06;3.17;;;2.28;;
26977;SDS011;56314;48.088;11.642;2022-10-04T13:32:41;3.65;;;2.78;;
26977;SDS011;56314;48.088;11.642;2022-10-04T13:38:11;4.05;;;2.30;;
26977;SDS011;56314;48.088;11.642;2022-10-04T13:46:41;3.20;;;1.80;;
26977;SDS011;56314;48.088;11.642;2022-10-04T13:49:20;4.28;;;2.30;;
26977;SDS011;56314;48.088;11.642;2022-10-04T13:54:45;2.88;;;2.15;;
26977;SDS011;56314;48.088;11.642;2022-10-04T13:57:56;3.88;;;2.10;;
26977;SDS011;56314;48.088;11.642;2022-10-04T14:20:56;7.90;;;2.20;;
26977;SDS011;56314;48.088;11.642;2022-10-04T14:26:33;4.28;;;2.38;;
26977;SDS011;56314;48.088;11.642;2022-10-04T14:53:19;3.80;;;2.25;;
26977;SDS011;56314;48.088;11.642;2022-10-04T14:59:03;4.75;;;2.85;;
26977;SDS011;56314;48.088;11.642;2022-10-04T15:04:56;2.95;;;2.00;;
26977;SDS011;56314;48.088;11.642;2022-10-04T15:07:36;5.78;;;2.30;;
26977;SDS011;56314;48.088;11.642;2022-10-04T15:20:59;5.18;;;2.10;;
26977;SDS011;56314;48.088;11.642;2022-10-04T15:23:29;3.10;;;2.53;;
26977;SDS011;56314;48.088;11.642;2022-10-04T15:28:37;5.45;;;2.17;;
26977;SDS011;56314;48.088;11.642;2022-10-04T15:31:22;2.83;;;1.95;;
26977;SDS011;56314;48.088;11.642;2022-10-04T15:34:08;3.85;;;2.35;;
26977;SDS011;56314;48.088;11.642;2022-10-04T15:45:00;4.10;;;2.45;;
26977;SDS011;56314;48.088;11.642;2022-10-04T15:47:53;5.13;;;2.60;;
26977;SDS011;56314;48.088;11.642;2022-10-04T15:50:33;6.90;;;2.88;;
26977;SDS011;56314;48.088;11.642;2022-10-04T15:53:21;4.85;;;2.65;;
26977;SDS011;56314;48.088;11.642;2022-10-04T15:56:24;4.57;;;2.60;;
26977;SDS011;56314;48.088;11.642;2022-10-04T16:15:39;3.88;;;2.20;;
26977;SDS011;56314;48.088;11.642;2022-10-04T16:18:28;2.80;;;2.55;;
26977;SDS011;56314;48.088;11.642;2022-10-04T16:23:37;5.60;;;2.35;;
26977;SDS011;56314;48.088;11.642;2022-10-04T16:36:49;4.40;;;2.60;;
26977;SDS011;56314;48.088;11.642;2022-10-04T16:50:46;4.25;;;3.25;;
26977;SDS011;56314;48.088;11.642;2022-10-04T16:55:55;11.38;;;3.70;;
26977;SDS011;56314;48.088;11.642;2022-10-04T17:11:57;8.20;;;4.35;;
26977;SDS011;56314;48.088;11.642;2022-10-04T17:29:02;6.93;;;4.70;;
26977;SDS011;56314;48.088;11.642;2022-10-04T17:34:25;10.52;;;5.22;;
26977;SDS011;56314;48.088;11.642;2022-10-04T17:36:55;8.40;;;5.43;;
26977;SDS011;56314;48.088;11.642;2022-10-04T17:39:51;9.68;;;5.57;;
26977;SDS011;56314;48.088;11.642;2022-10-04T17:45:24;7.38;;;5.22;;
26977;SDS011;56314;48.088;11.642;2022-10-04T17:48:00;12.07;;;6.15;;
26977;SDS011;56314;48.088;11.642;2022-10-04T17:50:55;10.02;;;6.25;;
26977;SDS011;56314;48.088;11.642;2022-10-04T17:53:44;9.90;;;6.75;;
26977;SDS011;56314;48.088;11.642;2022-10-04T17:56:34;9.68;;;6.35;;
26977;SDS011;56314;48.088;11.642;2022-10-04T17:59:06;9.80;;;6.03;;
26977;SDS011;56314;48.088;11.642;2022-10-04T18:01:37;10.93;;;6.40;;
26977;SDS011;56314;48.088;11.642;2022-10-04T18:06:37;7.32;;;5.43;;
26977;SDS011;56314;48.088;11.642;2022-10-04T18:16:55;12.43;;;6.55;;
26977;SDS011;56314;48.088;11.642;2022-10-04T18:22:22;12.35;;;7.10;;
26977;SDS011;56314;48.088;11.642;2022-10-04T18:25:11;12.20;;;7.63;;
26977;SDS011;56314;48.088;11.642;2022-10-04T18:27:49;13.23;;;7.47;;
26977;SDS011;56314;48.088;11.642;2022-10-04T18:30:15;12.38;;;7.82;;
26977;SDS011;56314;48.088;11.642;2022-10-04T18:32:50;10.38;;;7.35;;
26977;SDS011;56314;48.088;11.642;2022-10-04T18:35:20;9.20;;;6.97;;
26977;SDS011;56314;48.088;11.642;2022-10-04T18:40:40;11.32;;;7.60;;
26977;SDS011;56314;48.088;11.642;2022-10-04T18:43:30;9.52;;;7.97;;
26977;SDS011;56314;48.088;11.642;2022-10-04T18:51:22;13.38;;;7.95;;
26977;SDS011;56314;48.088;11.642;2022-10-04T18:56:44;13.18;;;7.97;;
26977;SDS011;56314;48.088;11.642;2022-10-04T19:09:00;11.40;;;8.80;;
26977;SDS011;56314;48.088;11.642;2022-10-04T19:17:16;18.35;;;9.80;;
26977;SDS011;56314;48.088;11.642;2022-10-04T19:19:52;15.63;;;9.07;;
26977;SDS011;56314;48.088;11.642;2022-10-04T19:28:41;15.25;;;9.20;;
26977;SDS011;56314;48.088;11.642;2022-10-04T19:30:52;16.58;;;9.90;;
26977;SDS011;56314;48.088;11.642;2022-10-04T19:33:48;12.38;;;7.88;;
26977;SDS011;56314;48.088;11.642;2022-10-04T19:36:39;12.85;;;8.48;;
26977;SDS011;56314;48.088;11.642;2022-10-04T19:42:04;14.02;;;9.55;;
26977;SDS011;56314;48.088;11.642;2022-10-04T19:44:43;11.80;;;8.73;;
26977;SDS011;56314;48.088;11.642;2022-10-04T19:52:47;13.40;;;8.13;;
26977;SDS011;56314;48.088;11.642;2022-10-04T20:01:00;10.82;;;7.50;;
26977;SDS011;56314;48.088;11.642;2022-10-04T20:03:26;10.23;;;7.55;;
26977;SDS011;56314;48.088;11.642;2022-10-04T20:05:52;13.90;;;6.68;;
26977;SDS011;56314;48.088;11.642;2022-10-04T20:11:44;10.07;;;7.75;;
26977;SDS011;56314;48.088;11.642;2022-10-04T20:19:13;10.15;;;6.78;;
26977;SDS011;56314;48.088;11.642;2022-10-04T20:27:00;9.68;;;6.50;;
26977;SDS011;56314;48.088;11.642;2022-10-04T20:37:17;11.05;;;6.88;;
26977;SDS011;56314;48.088;11.642;2022-10-04T20:44:45;10.00;;;6.70;;
26977;SDS011;56314;48.088;11.642;2022-10-04T20:47:26;9.73;;;6.50;;
26977;SDS011;56314;48.088;11.642;2022-10-04T20:49:57;9.48;;;6.53;;
26977;SDS011;56314;48.088;11.642;2022-10-04T20:52:26;9.05;;;6.35;;
26977;SDS011;56314;48.088;11.642;2022-10-04T20:54:56;11.93;;;7.35;;
26977;SDS011;56314;48.088;11.642;2022-10-04T20:57:25;12.95;;;6.78;;
26977;SDS011;56314;48.088;11.642;2022-10-04T20:59:52;10.07;;;7.50;;
26977;SDS011;56314;48.088;11.642;2022-10-04T21:02:19;10.43;;;7.38;;
26977;SDS011;56314;48.088;11.642;2022-10-04T21:04:46;11.57;;;7.28;;
26977;SDS011;56314;48.088;11.642;2022-10-04T21:07:16;12.27;;;7.65;;
26977;SDS011;56314;48.088;11.642;2022-10-04T21:09:43;12.00;;;7.32;;
26977;SDS011;56314;48.088;11.642;2022-10-04T21:15:20;9.82;;;6.80;;
26977;SDS011;56314;48.088;11.642;2022-10-04T21:20:40;10.15;;;7.25;;
26977;SDS011;56314;48.088;11.642;2022-10-04T21:23:16;11.70;;;6.95;;
26977;SDS011;56314;48.088;11.642;2022-10-04T21:26:17;10.05;;;7.38;;
26977;SDS011;56314;48.088;11.642;2022-10-04T21:28:44;10.02;;;7.40;;
26977;SDS011;56314;48.088;11.642;2022-10-04T21:31:09;9.20;;;7.07;;
26977;SDS011;56314;48.088;11.642;2022-10-04T21:33:35;9.18;;;7.38;;
26977;SDS011;56314;48.088;11.642;2022-10-04T21:36:01;9.90;;;7.10;;
26977;SDS011;56314;48.088;11.642;2022-10-04T21:38:27;11.07;;;7.90;;
26977;SDS011;56314;48.088;11.642;2022-10-04T21:40:53;11.77;;;7.70;;
26977;SDS011;56314;48.088;11.642;2022-10-04T21:43:19;13.50;;;7.30;;
26977;SDS011;56314;48.088;11.642;2022-10-04T21:45:45;12.23;;;7.97;;
26977;SDS011;56314;48.088;11.642;2022-10-04T21:48:11;12.55;;;7.97;;
26977;SDS011;56314;48.088;11.642;2022-10-04T21:50:36;12.48;;;8.63;;
26977;SDS011;56314;48.088;11.642;2022-10-04T21:53:01;11.73;;;7.43;;
26977;SDS011;56314;48.088;11.642;2022-10-04T21:55:27;10.98;;;8.18;;
26977;SDS011;56314;48.088;11.642;2022-10-04T21:57:52;9.77;;;7.78;;
26977;SDS011;56314;48.088;11.642;2022-10-04T22:00:18;17.55;;;8.48;;
26977;SDS011;56314;48.088;11.642;2022-10-04T22:02:43;10.75;;;8.30;;
26977;SDS011;56314;48.088;11.642;2022-10-04T22:05:08;12.40;;;8.13;;
26977;SDS011;56314;48.088;11.642;2022-10-04T22:07:34;10.80;;;7.55;;
26977;SDS011;56314;48.088;11.642;2022-10-04T22:09:59;11.98;;;7.55;;
26977;SDS011;56314;48.088;11.642;2022-10-04T22:12:24;10.82;;;7.88;;
26977;SDS011;56314;48.088;11.642;2022-10-04T22:14:50;8.15;;;7.18;;
26977;SDS011;56314;48.088;11.642;2022-10-04T22:17:16;8.82;;;7.55;;
26977;SDS011;56314;48.088;11.642;2022-10-04T22:19:41;12.32;;;7.75;;
26977;SDS011;56314;48.088;11.642;2022-10-04T22:22:11;8.70;;;6.75;;
26977;SDS011;56314;48.088;11.642;2022-10-04T22:24:38;9.98;;;7.72;;
26977;SDS011;56314;48.088;11.642;2022-10-04T22:27:08;10.43;;;7.25;;
26977;SDS011;56314;48.088;11.642;2022-10-04T22:29:37;13.53;;;8.07;;
26977;SDS011;56314;48.088;11.642;2022-10-04T22:32:05;10.82;;;6.88;;
26977;SDS011;56314;48.088;11.642;2022-10-04T22:34:37;11.05;;;7.38;;
26977;SDS011;56314;48.088;11.642;2022-10-04T22:37:02;9.80;;;6.97;;
26977;SDS011;56314;48.088;11.642;2022-10-04T22:39:27;11.55;;;7.55;;
26977;SDS011;56314;48.088;11.642;2022-10-04T22:41:57;8.60;;;7.05;;
26977;SDS011;56314;48.088;11.642;2022-10-04T22:44:25;9.18;;;6.65;;
26977;SDS011;56314;48.088;11.642;2022-10-04T22:46:57;12.13;;;7.80;;
26977;SDS011;56314;48.088;11.642;2022-10-04T22:49:25;9.02;;;6.93;;
26977;SDS011;56314;48.088;11.642;2022-10-04T22:51:53;7.75;;;6.63;;
26977;SDS011;56314;48.088;11.642;2022-10-04T22:54:24;10.80;;;7.63;;
26977;SDS011;56314;48.088;11.642;2022-10-04T22:56:54;9.53;;;7.27;;
26977;SDS011;56314;48.088;11.642;2022-10-04T22:59:21;11.00;;;6.57;;
26977;SDS011;56314;48.088;11.642;2022-10-04T23:01:50;11.15;;;6.22;;
26977;SDS011;56314;48.088;11.642;2022-10-04T23:04:19;10.05;;;6.68;;
26977;SDS011;56314;48.088;11.642;2022-10-04T23:06:45;8.70;;;5.75;;
26977;SDS011;56314;48.088;11.642;2022-10-04T23:09:10;8.32;;;6.60;;
26977;SDS011;56314;48.088;11.642;2022-10-04T23:11:35;17.05;;;5.72;;
26977;SDS011;56314;48.088;11.642;2022-10-04T23:14:01;9.05;;;6.03;;
26977;SDS011;56314;48.088;11.642;2022-10-04T23:16:26;10.93;;;5.65;;
26977;SDS011;56314;48.088;11.642;2022-10-04T23:18:57;11.30;;;6.57;;
26977;SDS011;56314;48.088;11.642;2022-10-04T23:21:33;7.35;;;5.35;;
26977;SDS011;56314;48.088;11.642;2022-10-04T23:24:04;8.25;;;5.72;;
26977;SDS011;56314;48.088;11.642;2022-10-04T23:26:39;8.50;;;5.55;;
26977;SDS011;56314;48.088;11.642;2022-10-04T23:29:05;6.95;;;5.40;;
26977;SDS011;56314;48.088;11.642;2022-10-04T23:31:38;8.60;;;5.68;;
26977;SDS011;56314;48.088;11.642;2022-10-04T23:34:08;5.95;;;5.10;;
26977;SDS011;56314;48.088;11.642;2022-10-04T23:36:41;8.43;;;5.45;;
26977;SDS011;56314;48.088;11.642;2022-10-04T23:39:07;5.70;;;4.65;;
26977;SDS011;56314;48.088;11.642;2022-10-04T23:41:37;8.48;;;5.30;;
26977;SDS011;56314;48.088;11.642;2022-10-04T23:44:04;7.30;;;5.38;;
26977;SDS011;56314;48.088;11.642;2022-10-04T23:46:35;7.00;;;4.80;;
26977;SDS011;56314;48.088;11.642;2022-10-04T23:49:00;5.20;;;4.45;;
26977;SDS011;56314;48.088;11.642;2022-10-04T23:51:26;5.55;;;5.05;;
26977;SDS011;56314;48.088;11.642;2022-10-04T23:53:52;7.82;;;5.15;;
26977;SDS011;56314;48.088;11.642;2022-10-04T23:56:19;12.07;;;5.78;;
26977;SDS011;56314;48.088;11.642;2022-10-04T23:58:46;8.40;;;5.28;;
